Time;durP1;ratioP1;P1;durP2;ratioP2;P2;SDS_P1;SDS_P2;PMS_P1;PMS_P2;Temp;Humidity;BMP_temperature;BMP_pressure;BME280_temperature;BME280_humidity;BME280_pressure;Samples;Min_cycle;Max_cycle;Signal;HPM_P1;HPM_P2
2021/05/01 00:01:59;;;;;;;1999.90;999.90;;;10.70;99.90;;;;;;5113132;28;20174;-41
2021/05/01 00:04:26;;;;;;;1999.90;999.90;;;10.60;99.90;;;;;;5113194;28;20175;-41
2021/05/01 00:06:53;;;;;;;1999.90;999.90;;;10.70;99.90;;;;;;5113092;28;20176;-42
2021/05/01 00:09:20;;;;;;;1999.90;999.90;;;10.60;99.90;;;;;;5112762;28;20175;-43
2021/05/01 00:11:47;;;;;;;1999.90;999.90;;;10.60;99.90;;;;;;5112871;28;20688;-41
2021/05/01 00:14:14;;;;;;;1999.90;999.90;;;10.60;99.90;;;;;;5113051;28;20233;-42
2021/05/01 00:16:41;;;;;;;1999.90;999.90;;;10.50;99.90;;;;;;5113115;28;20167;-41
2021/05/01 00:19:07;;;;;;;1999.90;999.90;;;10.50;99.90;;;;;;5112790;28;20586;-41
2021/05/01 00:21:34;;;;;;;1999.90;999.90;;;10.50;99.90;;;;;;5113026;28;20170;-42
2021/05/01 00:24:02;;;;;;;1999.90;999.90;;;10.50;99.90;;;;;;5112990;28;20178;-41
2021/05/01 00:26:29;;;;;;;1999.90;999.90;;;10.50;99.90;;;;;;5113199;28;20254;-41
2021/05/01 00:28:56;;;;;;;1999.90;999.90;;;10.50;99.90;;;;;;5113068;28;20167;-41
2021/05/01 00:31:23;;;;;;;1999.90;999.90;;;10.50;99.90;;;;;;5112985;28;20717;-42
2021/05/01 00:33:49;;;;;;;1999.90;999.90;;;10.50;99.90;;;;;;5112860;28;20202;-45
2021/05/01 00:36:16;;;;;;;1999.90;999.90;;;10.50;99.90;;;;;;5112977;28;20159;-41
2021/05/01 00:38:44;;;;;;;1999.90;999.90;;;10.40;99.90;;;;;;5112894;28;20203;-41
2021/05/01 00:41:12;;;;;;;1999.90;999.90;;;10.40;99.90;;;;;;5112822;28;20258;-41
2021/05/01 00:43:42;;;;;;;1999.90;999.90;;;10.50;99.90;;;;;;5112997;28;20167;-41
2021/05/01 00:46:09;;;;;;;1999.90;999.90;;;10.50;99.90;;;;;;5112997;28;20244;-41
2021/05/01 00:48:36;;;;;;;1999.90;999.90;;;10.50;99.90;;;;;;5112852;28;20663;-41
2021/05/01 00:51:03;;;;;;;1999.90;999.90;;;10.60;99.90;;;;;;5112785;28;20203;-41
2021/05/01 00:53:32;;;;;;;1999.90;999.90;;;10.60;99.90;;;;;;5112602;28;20280;-42
2021/05/01 00:56:00;;;;;;;1999.90;999.90;;;10.60;99.90;;;;;;5112947;28;20175;-41
2021/05/01 00:58:27;;;;;;;1999.90;999.90;;;10.70;99.90;;;;;;5112845;28;20168;-41
2021/05/01 01:03:34;;;;;;;1999.90;999.90;;;10.70;99.90;;;;;;5116423;28;20159;-41
2021/05/01 01:06:01;;;;;;;1999.90;999.90;;;10.70;99.90;;;;;;5116381;28;20646;-41
2021/05/01 01:08:28;;;;;;;1999.90;999.90;;;10.60;99.90;;;;;;5116381;28;20163;-41
2021/05/01 01:10:55;;;;;;;1999.90;999.90;;;10.50;99.90;;;;;;5116236;28;20177;-42
2021/05/01 01:13:22;;;;;;;1999.90;999.90;;;10.50;99.90;;;;;;5116066;28;20239;-41
2021/05/01 01:15:49;;;;;;;1999.90;999.90;;;10.40;99.90;;;;;;5116177;28;20170;-51
2021/05/01 01:18:16;;;;;;;1999.90;999.90;;;10.40;99.90;;;;;;5116093;28;20285;-41
2021/05/01 01:20:43;;;;;;;1999.90;999.90;;;10.40;99.90;;;;;;5116213;28;20175;-41
2021/05/01 01:23:11;;;;;;;1999.90;999.90;;;10.50;99.90;;;;;;5116211;28;20209;-42
2021/05/01 01:25:38;;;;;;;1999.90;999.90;;;10.40;99.90;;;;;;5115896;28;20613;-41
2021/05/01 01:28:05;;;;;;;1999.90;999.90;;;10.40;99.90;;;;;;5097659;28;20175;-41
2021/05/01 01:30:34;;;;;;;1999.90;999.90;;;10.50;99.90;;;;;;5115924;28;20628;-41
2021/05/01 01:33:06;;;;;;;1999.90;999.90;;;10.50;99.90;;;;;;5115775;28;20664;-41
2021/05/01 01:35:34;;;;;;;1999.90;999.90;;;10.40;99.90;;;;;;5115787;28;20487;-42
2021/05/01 01:38:02;;;;;;;1999.90;999.90;;;10.40;99.90;;;;;;5115806;28;20178;-42
2021/05/01 01:40:29;;;;;;;1999.90;999.90;;;10.50;99.90;;;;;;5115657;28;20601;-41
2021/05/01 01:42:56;;;;;;;1999.90;999.90;;;10.50;99.90;;;;;;5115599;28;20224;-42
2021/05/01 01:45:27;;;;;;;1999.90;999.90;;;10.50;99.90;;;;;;5115598;28;20171;-41
2021/05/01 01:47:55;;;;;;;1999.90;999.90;;;10.40;99.90;;;;;;5115487;28;20167;-41
2021/05/01 01:50:24;;;;;;;1999.90;999.90;;;10.20;99.90;;;;;;5115348;28;20206;-41
2021/05/01 01:52:51;;;;;;;1999.90;999.90;;;10.10;99.90;;;;;;5115273;28;20223;-41
2021/05/01 01:55:20;;;;;;;1999.90;999.90;;;10.10;99.90;;;;;;5115466;28;20163;-41
2021/05/01 01:57:48;;;;;;;1999.90;999.90;;;10.10;99.90;;;;;;5115350;28;20178;-41
2021/05/01 02:00:23;;;;;;;1999.90;999.90;;;10.00;99.90;;;;;;5115402;28;20167;-42
2021/05/01 02:02:50;;;;;;;1999.90;999.90;;;10.00;99.90;;;;;;5115299;28;20651;-41
2021/05/01 02:05:18;;;;;;;1999.90;999.90;;;9.90;99.90;;;;;;5115202;28;20171;-41
2021/05/01 02:07:45;;;;;;;1999.90;999.90;;;9.80;99.90;;;;;;5115153;28;20163;-41
2021/05/01 02:10:14;;;;;;;1999.90;999.90;;;9.80;99.90;;;;;;5115138;28;20550;-41
2021/05/01 02:12:42;;;;;;;1999.90;999.90;;;9.80;99.90;;;;;;5114896;28;20218;-41
2021/05/01 02:15:11;;;;;;;1999.90;999.90;;;9.80;99.90;;;;;;5115049;28;20637;-41
2021/05/01 02:17:40;;;;;;;1999.90;999.90;;;9.60;99.90;;;;;;5114789;28;20666;-41
2021/05/01 02:20:09;;;;;;;1999.90;999.90;;;9.70;99.90;;;;;;5114703;28;20605;-41
2021/05/01 02:22:36;;;;;;;1999.90;999.90;;;9.60;99.90;;;;;;5114754;28;20189;-41
2021/05/01 02:25:06;;;;;;;1999.90;999.90;;;9.60;99.90;;;;;;5114659;28;20163;-41
2021/05/01 02:27:33;;;;;;;1999.90;999.90;;;9.60;99.90;;;;;;5114936;28;20217;-41
2021/05/01 02:30:00;;;;;;;1999.90;999.90;;;9.60;99.90;;;;;;5114599;28;20502;-41
2021/05/01 02:32:27;;;;;;;1999.90;999.90;;;9.60;99.90;;;;;;5114545;28;20245;-41
2021/05/01 02:34:53;;;;;;;1999.90;999.90;;;9.60;99.90;;;;;;5114605;28;20258;-41
2021/05/01 02:37:20;;;;;;;1999.90;999.90;;;9.60;99.90;;;;;;5114912;28;20553;-41
2021/05/01 02:39:47;;;;;;;1999.90;999.90;;;9.60;99.90;;;;;;5114642;28;20201;-41
2021/05/01 02:42:14;;;;;;;1999.90;999.90;;;9.60;99.90;;;;;;5114536;28;20228;-41
2021/05/01 02:44:41;;;;;;;1999.90;999.90;;;9.60;99.90;;;;;;5114265;28;20207;-47
2021/05/01 02:47:08;;;;;;;1999.90;999.90;;;9.70;99.90;;;;;;5114404;28;20232;-41
2021/05/01 02:49:35;;;;;;;1999.90;999.90;;;9.70;99.90;;;;;;5114370;28;20633;-42
2021/05/01 02:52:01;;;;;;;1999.90;999.90;;;9.70;99.90;;;;;;5114033;28;20222;-42
2021/05/01 02:54:28;;;;;;;1999.90;999.90;;;9.70;99.90;;;;;;5114374;28;20163;-42
2021/05/01 02:56:55;;;;;;;1999.90;999.90;;;9.70;99.90;;;;;;5114232;28;20224;-41
2021/05/01 02:59:22;;;;;;;1999.90;999.90;;;9.70;99.90;;;;;;5114394;28;20170;-41
2021/05/01 03:01:49;;;;;;;1999.90;999.90;;;9.70;99.90;;;;;;5114290;28;20173;-41
2021/05/01 03:04:15;;;;;;;1999.90;999.90;;;9.70;99.90;;;;;;5114041;28;20254;-41
2021/05/01 03:06:42;;;;;;;1999.90;999.90;;;9.80;99.90;;;;;;5113945;28;20221;-42
2021/05/01 03:09:09;;;;;;;1999.90;999.90;;;9.70;99.90;;;;;;5113942;28;20159;-41
2021/05/01 03:11:36;;;;;;;1999.90;999.90;;;9.70;99.90;;;;;;5113914;28;20204;-41
2021/05/01 03:14:03;;;;;;;1999.90;999.90;;;9.70;99.90;;;;;;5113886;28;20179;-41
2021/05/01 03:16:30;;;;;;;1999.90;999.90;;;9.70;99.90;;;;;;5113898;28;20625;-41
2021/05/01 03:18:57;;;;;;;1999.90;999.90;;;9.70;99.90;;;;;;5113825;28;20629;-41
2021/05/01 03:21:23;;;;;;;1999.90;999.90;;;9.70;99.90;;;;;;5113865;28;20236;-41
2021/05/01 03:23:51;;;;;;;1999.90;999.90;;;9.70;99.90;;;;;;5113514;28;20163;-41
2021/05/01 03:26:20;;;;;;;1999.90;999.90;;;9.70;99.90;;;;;;5113779;28;20178;-41
2021/05/01 03:28:47;;;;;;;1999.90;999.90;;;9.70;99.90;;;;;;5113546;28;20175;-43
2021/05/01 03:31:14;;;;;;;1999.90;999.90;;;9.60;99.90;;;;;;5113642;28;20170;-41
2021/05/01 03:33:41;;;;;;;1999.90;999.90;;;9.60;99.90;;;;;;5113514;28;20195;-41
2021/05/01 03:36:09;;;;;;;1999.90;999.90;;;9.50;99.90;;;;;;5113567;28;20159;-42
2021/05/01 03:38:35;;;;;;;1999.90;999.90;;;9.60;99.90;;;;;;5113549;28;20170;-42
2021/05/01 03:41:03;;;;;;;1999.90;999.90;;;9.50;99.90;;;;;;5113523;28;20163;-41
2021/05/01 03:43:30;;;;;;;1999.90;999.90;;;9.50;99.90;;;;;;5113484;28;20296;-41
2021/05/01 03:45:58;;;;;;;1999.90;999.90;;;9.60;99.90;;;;;;5113408;28;20167;-41
2021/05/01 03:48:25;;;;;;;1999.90;999.90;;;9.60;99.90;;;;;;5113290;28;20626;-41
2021/05/01 03:50:52;;;;;;;1999.90;999.90;;;9.50;99.90;;;;;;5113256;28;20573;-41
2021/05/01 03:53:19;;;;;;;1999.90;999.90;;;9.50;99.90;;;;;;5113096;28;20651;-42
2021/05/01 03:55:46;;;;;;;1999.90;999.90;;;9.40;99.90;;;;;;5113341;28;20618;-41
2021/05/01 03:58:13;;;;;;;1999.90;999.90;;;9.30;99.90;;;;;;5113297;28;20171;-41
2021/05/01 04:00:40;;;;;;;1999.90;999.90;;;9.30;99.90;;;;;;5113323;28;20528;-41
2021/05/01 04:03:06;;;;;;;1999.90;999.90;;;9.30;99.90;;;;;;5113242;28;20171;-41
2021/05/01 04:05:34;;;;;;;1999.90;999.90;;;9.30;99.90;;;;;;5113263;28;20167;-42
2021/05/01 04:08:01;;;;;;;1999.90;999.90;;;9.20;99.90;;;;;;5113253;28;20633;-41
2021/05/01 04:10:28;;;;;;;1999.90;999.90;;;9.20;99.90;;;;;;5113305;28;20170;-41
2021/05/01 04:12:55;;;;;;;1999.90;999.90;;;9.20;99.90;;;;;;5113213;28;20195;-41
2021/05/01 04:15:21;;;;;;;1999.90;999.90;;;9.10;99.90;;;;;;5113081;28;20269;-41
2021/05/01 04:17:49;;;;;;;1999.90;999.90;;;9.10;99.90;;;;;;5113044;28;20258;-42
2021/05/01 04:20:16;;;;;;;1999.90;999.90;;;9.10;99.90;;;;;;5113055;28;20159;-41
2021/05/01 04:22:43;;;;;;;1999.90;999.90;;;9.20;99.90;;;;;;5112913;28;20270;-41
2021/05/01 04:25:11;;;;;;;1999.90;999.90;;;9.10;99.90;;;;;;5113000;28;20163;-41
2021/05/01 04:27:39;;;;;;;1999.90;999.90;;;9.20;99.90;;;;;;5113124;28;20186;-41
2021/05/01 04:30:08;;;;;;;1999.90;999.90;;;9.10;99.90;;;;;;5112930;28;20632;-41
2021/05/01 04:32:35;;;;;;;1999.90;999.90;;;9.10;99.90;;;;;;5112857;28;20293;-41
2021/05/01 04:35:04;;;;;;;1999.90;999.90;;;9.10;99.90;;;;;;5114778;28;20168;-41
2021/05/01 04:37:31;;;;;;;1999.90;999.90;;;9.10;99.90;;;;;;5116779;28;20169;-41
2021/05/01 04:39:58;;;;;;;1999.90;999.90;;;9.20;99.90;;;;;;5117081;28;20653;-41
2021/05/01 04:42:25;;;;;;;1999.90;999.90;;;9.10;99.90;;;;;;5116991;28;20167;-41
2021/05/01 04:44:52;;;;;;;1999.90;999.90;;;9.10;99.90;;;;;;5116833;28;20166;-41
2021/05/01 04:47:19;;;;;;;1999.90;999.90;;;9.10;99.90;;;;;;5116752;28;20699;-41
2021/05/01 04:49:46;;;;;;;1999.90;999.90;;;9.00;99.90;;;;;;5116716;28;20492;-41
2021/05/01 04:52:13;;;;;;;1999.90;999.90;;;9.00;99.90;;;;;;5116291;28;20226;-41
2021/05/01 04:54:39;;;;;;;1999.90;999.90;;;9.00;99.90;;;;;;5116678;28;20167;-41
2021/05/01 04:57:06;;;;;;;1999.90;999.90;;;8.90;99.90;;;;;;5116838;28;20526;-41
2021/05/01 04:59:33;;;;;;;1999.90;999.90;;;8.90;99.90;;;;;;5116534;28;20206;-41
2021/05/01 05:02:00;;;;;;;1999.90;999.90;;;8.90;99.90;;;;;;5116599;28;20231;-41
2021/05/01 05:04:27;;;;;;;1999.90;999.90;;;8.90;99.90;;;;;;5116581;28;20246;-41
2021/05/01 05:06:54;;;;;;;1999.90;999.90;;;8.90;99.90;;;;;;5116396;28;20178;-41
2021/05/01 05:09:21;;;;;;;1999.90;999.90;;;8.90;99.90;;;;;;5116376;28;20163;-41
2021/05/01 05:11:47;;;;;;;1999.90;999.90;;;9.00;99.90;;;;;;5116171;28;20204;-41
2021/05/01 05:14:14;;;;;;;1999.90;999.90;;;9.00;99.90;;;;;;5116268;28;20174;-41
2021/05/01 05:16:41;;;;;;;1999.90;999.90;;;9.10;99.90;;;;;;5116224;28;20173;-41
2021/05/01 05:19:08;;;;;;;1999.90;999.90;;;9.10;99.90;;;;;;5116000;28;20163;-41
2021/05/01 05:21:35;;;;;;;1999.90;999.90;;;9.00;99.90;;;;;;5115949;28;20162;-41
2021/05/01 05:24:05;;;;;;;1999.90;999.90;;;9.00;99.90;;;;;;5115987;28;20220;-41
2021/05/01 05:26:32;;;;;;;1999.90;999.90;;;9.00;99.90;;;;;;5116137;28;20508;-41
2021/05/01 05:28:59;;;;;;;1999.90;999.90;;;9.00;99.90;;;;;;5116005;28;20609;-41
2021/05/01 05:31:26;;;;;;;1999.90;999.90;;;8.90;99.90;;;;;;5115799;28;20535;-42
2021/05/01 05:33:53;;;;;;;1999.90;999.90;;;9.00;99.90;;;;;;5115679;28;20294;-41
2021/05/01 05:36:20;;;;;;;1999.90;999.90;;;8.90;99.90;;;;;;5115664;28;20674;-41
2021/05/01 05:38:46;;;;;;;1999.90;999.90;;;8.90;99.90;;;;;;5115619;28;20167;-41
2021/05/01 05:41:13;;;;;;;1999.90;999.90;;;9.00;99.90;;;;;;5115503;28;20167;-41
2021/05/01 05:43:40;;;;;;;1999.90;999.90;;;9.00;99.90;;;;;;5115396;28;20543;-41
2021/05/01 05:46:14;;;;;;;1999.90;999.90;;;9.00;99.90;;;;;;5115109;28;20175;-41
2021/05/01 05:48:41;;;;;;;1999.90;999.90;;;9.00;99.90;;;;;;5115341;28;20501;-41
2021/05/01 05:51:08;;;;;;;1999.90;999.90;;;9.00;99.90;;;;;;5115217;28;20190;-43
2021/05/01 05:53:35;;;;;;;1999.90;999.90;;;9.10;99.90;;;;;;5115096;28;20228;-41
2021/05/01 05:56:03;;;;;;;1999.90;999.90;;;9.10;99.90;;;;;;5115292;28;20170;-41
2021/05/01 05:58:30;;;;;;;1999.90;999.90;;;9.10;99.90;;;;;;5115016;28;20454;-41
2021/05/01 06:00:57;;;;;;;1999.90;999.90;;;9.20;99.90;;;;;;5115034;28;20175;-41
2021/05/01 06:03:25;;;;;;;1999.90;999.90;;;9.20;99.90;;;;;;5115038;28;20227;-41
2021/05/01 06:05:58;;;;;;;1999.90;999.90;;;9.30;99.90;;;;;;5115067;28;20185;-41
2021/05/01 06:08:29;;;;;;;1999.90;999.90;;;9.50;99.90;;;;;;5115262;28;20161;-41
2021/05/01 06:10:58;;;;;;;1999.90;999.90;;;9.60;99.90;;;;;;5115019;28;20159;-41
2021/05/01 06:13:27;;;;;;;1999.90;999.90;;;9.60;99.90;;;;;;5114822;28;20203;-41
2021/05/01 06:15:59;;;;;;;1999.90;999.90;;;9.70;99.90;;;;;;5114807;28;20202;-41
2021/05/01 06:18:27;;;;;;;1999.90;999.90;;;9.80;99.90;;;;;;5096855;28;20523;-43
2021/05/01 06:20:55;;;;;;;1999.90;999.90;;;9.90;99.90;;;;;;5114577;28;20171;-41
2021/05/01 06:23:21;;;;;;;1999.90;999.90;;;10.00;99.90;;;;;;5114462;28;20483;-43
2021/05/01 06:25:48;;;;;;;1999.90;999.90;;;10.20;99.90;;;;;;5114701;28;20159;-43
2021/05/01 06:28:16;;;;;;;1999.90;999.90;;;10.40;99.90;;;;;;5114642;28;20167;-41
2021/05/01 06:30:44;;;;;;;1999.90;999.90;;;10.50;99.90;;;;;;5114457;28;20227;-41
2021/05/01 06:33:15;;;;;;;1999.90;999.90;;;10.70;99.90;;;;;;5114447;28;20228;-41
2021/05/01 06:35:44;;;;;;;1999.90;999.90;;;10.70;99.90;;;;;;5114389;28;20167;-41
2021/05/01 06:38:11;;;;;;;1999.90;999.90;;;10.70;99.90;;;;;;5114296;28;20171;-41
2021/05/01 06:40:43;;;;;;;1999.90;999.90;;;10.80;99.90;;;;;;5114249;28;20182;-45
2021/05/01 06:43:19;;;;;;;1999.90;999.90;;;10.80;99.90;;;;;;5114252;28;20170;-41
2021/05/01 06:45:47;;;;;;;1999.90;999.90;;;10.80;99.90;;;;;;5114083;28;20231;-41
2021/05/01 06:48:21;;;;;;;1999.90;999.90;;;10.90;99.90;;;;;;5114172;28;20166;-41
2021/05/01 06:50:49;;;;;;;1999.90;999.90;;;10.90;99.90;;;;;;5114065;28;20620;-41
2021/05/01 06:53:28;;;;;;;1999.90;999.90;;;11.00;99.90;;;;;;5113975;28;20222;-42
2021/05/01 06:56:05;;;;;;;1999.90;999.90;;;11.10;99.90;;;;;;5114087;28;20151;-42
2021/05/01 06:58:34;;;;;;;1999.90;999.90;;;11.20;99.90;;;;;;5113348;28;20162;-44
2021/05/01 07:01:10;;;;;;;1999.90;999.90;;;11.30;99.90;;;;;;5114018;28;20178;-42
2021/05/01 07:03:49;;;;;;;1999.90;999.90;;;11.40;99.90;;;;;;5114042;28;20159;-42
2021/05/01 07:06:20;;;;;;;1999.90;999.90;;;11.60;99.90;;;;;;5113928;28;20161;-42
2021/05/01 07:08:47;;;;;;;1999.90;999.90;;;11.90;99.90;;;;;;5113868;28;20199;-41
2021/05/01 07:11:14;;;;;;;1999.90;999.90;;;12.00;99.90;;;;;;5113687;28;20175;-42
2021/05/01 07:13:41;;;;;;;1999.90;999.90;;;12.20;99.90;;;;;;5113744;28;20203;-41
2021/05/01 07:16:10;;;;;;;1999.90;999.90;;;12.30;99.90;;;;;;5113670;28;20183;-42
2021/05/01 07:18:42;;;;;;;1999.90;999.90;;;12.40;99.90;;;;;;5113509;28;20649;-41
2021/05/01 07:21:11;;;;;;;1999.90;999.90;;;12.60;99.90;;;;;;5113533;28;20167;-41
2021/05/01 07:23:38;;;;;;;1999.90;999.90;;;12.80;99.90;;;;;;5113649;28;20174;-41
2021/05/01 07:26:06;;;;;;;1999.90;999.90;;;12.90;99.90;;;;;;5113750;28;20620;-41
2021/05/01 07:28:38;;;;;;;1999.90;999.90;;;13.00;99.90;;;;;;5113450;28;20598;-43
2021/05/01 07:31:12;;;;;;;1999.90;999.90;;;13.20;99.90;;;;;;5113397;28;20159;-42
2021/05/01 07:33:55;;;;;;;1999.90;999.90;;;13.30;99.90;;;;;;5113677;28;20190;-42
2021/05/01 07:36:39;;;;;;;1999.90;999.90;;;13.50;99.90;;;;;;5095427;28;20236;-42
2021/05/01 07:39:11;;;;;;;1999.90;999.90;;;13.80;99.50;;;;;;5113402;28;20188;-41
2021/05/01 07:41:43;;;;;;;1999.90;999.90;;;13.90;99.00;;;;;;5113316;28;20194;-42
2021/05/01 07:44:12;;;;;;;1999.90;999.90;;;14.10;99.30;;;;;;5113698;28;20640;-42
2021/05/01 07:46:40;;;;;;;1999.90;999.90;;;14.30;98.10;;;;;;5113121;28;20198;-42
2021/05/01 07:49:08;;;;;;;1999.90;999.90;;;14.50;97.90;;;;;;5113261;28;20641;-44
2021/05/01 07:51:37;;;;;;;1999.90;999.90;;;14.70;96.90;;;;;;5112888;28;20716;-42
2021/05/01 07:54:04;;;;;;;1999.90;999.90;;;14.80;96.70;;;;;;5113006;28;20202;-42
2021/05/01 07:56:31;;;;;;;1999.90;999.90;;;15.00;96.50;;;;;;5113131;28;20240;-49
2021/05/01 07:59:00;;;;;;;1999.90;999.90;;;15.10;95.70;;;;;;5113049;28;20159;-45
2021/05/01 08:01:31;;;;;;;1999.90;999.90;;;15.20;95.40;;;;;;5112968;28;20590;-42
2021/05/01 08:03:58;;;;;;;1999.90;999.90;;;15.30;95.30;;;;;;5112946;28;20151;-45
2021/05/01 08:06:28;;;;;;;1999.90;999.90;;;15.50;95.00;;;;;;5094895;28;20197;-44
2021/05/01 08:08:56;;;;;;;1999.90;999.90;;;15.80;94.20;;;;;;5114578;28;20160;-42
2021/05/01 08:11:23;;;;;;;1999.90;999.90;;;16.00;93.20;;;;;;5117144;28;20264;-42
2021/05/01 08:13:50;;;;;;;1999.90;999.90;;;16.30;92.60;;;;;;5117151;28;20610;-42
2021/05/01 08:16:17;;;;;;;1999.90;999.90;;;16.70;91.80;;;;;;5117385;28;20525;-41
2021/05/01 08:18:45;;;;;;;1999.90;999.90;;;17.00;90.20;;;;;;5117507;28;20171;-44
2021/05/01 08:21:12;;;;;;;1999.90;999.90;;;17.30;89.00;;;;;;5117229;28;20189;-51
2021/05/01 08:23:38;;;;;;;1999.90;999.90;;;17.50;88.70;;;;;;5117086;28;20187;-43
2021/05/01 08:26:06;;;;;;;1999.90;999.90;;;17.80;85.90;;;;;;5117160;28;20249;-43
2021/05/01 08:28:33;;;;;;;1999.90;999.90;;;18.00;84.50;;;;;;5117116;28;20663;-44
2021/05/01 08:31:00;;;;;;;1999.90;999.90;;;18.20;83.10;;;;;;5117139;28;20625;-54
2021/05/01 08:33:27;;;;;;;1999.90;999.90;;;18.30;83.80;;;;;;5116838;28;20211;-43
2021/05/01 08:35:56;;;;;;;1999.90;999.90;;;18.50;81.10;;;;;;5116993;28;20625;-44
2021/05/01 08:38:24;;;;;;;1999.90;999.90;;;18.60;81.00;;;;;;5116617;28;20175;-55
2021/05/01 08:40:51;;;;;;;1999.90;999.90;;;18.70;80.60;;;;;;5116503;28;20618;-54
2021/05/01 08:43:18;;;;;;;1999.90;999.90;;;18.80;79.40;;;;;;5116896;28;20563;-44
2021/05/01 08:45:47;;;;;;;1999.90;999.90;;;19.00;76.10;;;;;;5116913;28;20167;-45
2021/05/01 08:48:15;;;;;;;1999.90;999.90;;;18.90;73.10;;;;;;5116712;28;20164;-43
2021/05/01 08:50:55;;;;;;;1999.90;999.90;;;19.10;72.10;;;;;;5116693;28;20179;-45
2021/05/01 08:53:22;;;;;;;1999.90;999.90;;;19.10;71.20;;;;;;5116453;28;20676;-44
2021/05/01 08:55:49;;;;;;;1999.90;999.90;;;19.30;71.50;;;;;;5116669;28;20163;-45
2021/05/01 08:58:16;;;;;;;1999.90;999.90;;;19.50;69.00;;;;;;5116631;28;20174;-50
2021/05/01 09:00:47;;;;;;;1999.90;999.90;;;19.60;68.20;;;;;;5116547;28;20167;-43
2021/05/01 09:03:18;;;;;;;1999.90;999.90;;;19.70;69.10;;;;;;5116644;28;20171;-53
2021/05/01 09:05:46;;;;;;;1999.90;999.90;;;20.00;65.10;;;;;;5116411;28;20167;-45
2021/05/01 09:08:13;;;;;;;1999.90;999.90;;;20.20;64.80;;;;;;5116692;28;20178;-44
2021/05/01 09:10:46;;;;;;;1999.90;999.90;;;20.40;62.60;;;;;;5116079;28;20632;-45
2021/05/01 09:13:21;;;;;;;1999.90;999.90;;;20.40;59.70;;;;;;5116374;28;20211;-48
2021/05/01 09:16:04;;;;;;;1999.90;999.90;;;20.40;60.90;;;;;;5116241;28;20188;-43
2021/05/01 09:18:50;;;;;;;1999.90;999.90;;;20.60;59.80;;;;;;5115962;28;20196;-46
2021/05/01 09:21:22;;;;;;;1999.90;999.90;;;20.90;60.10;;;;;;5114958;28;20526;-44
2021/05/01 09:23:49;;;;;;;1999.90;999.90;;;21.10;58.60;;;;;;5115784;28;20159;-52
2021/05/01 09:26:22;;;;;;;1999.90;999.90;;;21.30;58.50;;;;;;5115731;28;20192;-49
2021/05/01 09:28:50;;;;;;;1999.90;999.90;;;21.70;57.40;;;;;;5115777;28;20160;-45
2021/05/01 09:31:20;;;;;;;1999.90;999.90;;;22.00;56.50;;;;;;5115600;28;20256;-53
2021/05/01 09:33:51;;;;;;;1999.90;999.90;;;22.20;54.80;;;;;;5115386;28;20674;-53
2021/05/01 09:36:26;;;;;;;1999.90;999.90;;;22.40;53.20;;;;;;5115386;28;20664;-56
2021/05/01 09:39:16;;;;;;;1999.90;999.90;;;22.70;52.90;;;;;;5115627;28;20524;-47
2021/05/01 09:41:46;;;;;;;1999.90;999.90;;;22.80;52.70;;;;;;5115439;28;20156;-58
2021/05/01 09:44:17;;;;;;;1999.90;999.90;;;22.80;51.10;;;;;;5115265;28;20171;-56
2021/05/01 09:46:46;;;;;;;1999.90;999.90;;;23.10;50.10;;;;;;5115465;28;20228;-48
2021/05/01 09:49:14;;;;;;;1999.90;999.90;;;23.10;50.30;;;;;;5115354;28;20261;-54
2021/05/01 09:51:54;;;;;;;1999.90;999.90;;;23.20;50.00;;;;;;5114858;28;20633;-52
2021/05/01 09:54:31;;;;;;;1999.90;999.90;;;23.50;49.90;;;;;;5115171;28;20557;-54
2021/05/01 09:57:10;;;;;;;1999.90;999.90;;;23.50;49.60;;;;;;5114828;28;20159;-58
2021/05/01 09:59:48;;;;;;;1999.90;999.90;;;23.70;48.30;;;;;;5114953;28;20163;-52
2021/05/01 10:02:17;;;;;;;1999.90;999.90;;;23.40;49.00;;;;;;5115114;28;20155;-55
2021/05/01 10:05:03;;;;;;;1999.90;999.90;;;23.50;50.20;;;;;;5115148;28;20172;-58
2021/05/01 10:07:32;;;;;;;1999.90;999.90;;;23.60;48.00;;;;;;5114988;28;20167;-54
2021/05/01 10:09:59;;;;;;;1999.90;999.90;;;23.80;48.40;;;;;;5114923;28;20693;-56
2021/05/01 10:12:43;;;;;;;1999.90;999.90;;;23.90;48.30;;;;;;5114779;28;20206;-53
2021/05/01 10:15:24;;;;;;;1999.90;999.90;;;23.90;47.90;;;;;;5114841;28;20159;-54
2021/05/01 10:17:52;;;;;;;1999.90;999.90;;;24.00;47.10;;;;;;5114489;28;20156;-58
2021/05/01 10:20:22;;;;;;;1999.90;999.90;;;24.00;47.90;;;;;;5114492;28;20167;-52
2021/05/01 10:22:50;;;;;;;1999.90;999.90;;;24.10;47.30;;;;;;5114173;28;20171;-55
2021/05/01 10:25:26;;;;;;;1999.90;999.90;;;24.30;46.30;;;;;;5114190;28;20531;-55
2021/05/01 10:28:03;;;;;;;1999.90;999.90;;;24.60;46.50;;;;;;5114239;28;20208;-57
2021/05/01 10:30:40;;;;;;;1999.90;999.90;;;24.70;46.00;;;;;;5114303;28;20151;-47
2021/05/01 10:36:01;;;;;;;1999.90;999.90;;;24.90;44.40;;;;;;5114388;28;20162;-52
2021/05/01 10:38:29;;;;;;;1999.90;999.90;;;24.80;44.70;;;;;;5114508;28;20160;-43
2021/05/01 10:40:58;;;;;;;1999.90;999.90;;;24.50;46.00;;;;;;5114420;28;20494;-48
2021/05/01 10:43:27;;;;;;;1999.90;999.90;;;24.70;44.40;;;;;;5096119;28;20228;-47
2021/05/01 10:45:57;;;;;;;1999.90;999.90;;;24.90;43.80;;;;;;5114063;28;20159;-42
2021/05/01 10:48:26;;;;;;;1999.90;999.90;;;24.90;44.40;;;;;;5114145;28;20163;-48
2021/05/01 10:51:22;;;;;;;1999.90;999.90;;;24.90;43.30;;;;;;5113945;28;20514;-56
2021/05/01 10:54:12;;;;;;;1999.90;999.90;;;24.90;43.70;;;;;;5093264;28;20292;-55
2021/05/01 10:56:50;;;;;;;1999.90;999.90;;;24.70;42.50;;;;;;5114022;28;20172;-44
2021/05/01 10:59:29;;;;;;;1999.90;999.90;;;24.70;44.30;;;;;;5095543;28;20159;-57
2021/05/01 11:02:00;;;;;;;1999.90;999.90;;;24.90;42.40;;;;;;5114094;28;20685;-48
2021/05/01 11:04:32;;;;;;;1999.90;999.90;;;24.80;40.80;;;;;;5114068;28;20522;-56
2021/05/01 11:07:19;;;;;;;1999.90;999.90;;;24.90;40.70;;;;;;5113921;28;20164;-57
2021/05/01 11:09:51;;;;;;;1999.90;999.90;;;24.90;41.30;;;;;;5113882;28;20151;-51
2021/05/01 11:12:23;;;;;;;1999.90;999.90;;;24.60;41.30;;;;;;5113692;28;20195;-53
2021/05/01 11:15:02;;;;;;;1999.90;999.90;;;24.70;42.30;;;;;;5113676;28;20640;-57
2021/05/01 11:17:29;;;;;;;1999.90;999.90;;;24.70;41.60;;;;;;5113931;28;20214;-56
2021/05/01 11:20:22;;;;;;;1999.90;999.90;;;24.90;41.80;;;;;;5113722;28;20250;-46
2021/05/01 11:22:53;;;;;;;1999.90;999.90;;;25.20;40.30;;;;;;5109481;28;20183;-50
2021/05/01 11:25:22;;;;;;;1999.90;999.90;;;25.30;39.70;;;;;;5113564;28;20204;-44
2021/05/01 11:27:54;;;;;;;1999.90;999.90;;;25.40;38.50;;;;;;5113508;28;20176;-50
2021/05/01 11:30:24;;;;;;;1999.90;999.90;;;25.40;38.70;;;;;;5113398;28;20193;-45
2021/05/01 11:32:52;;;;;;;1999.90;999.90;;;25.30;38.60;;;;;;5113450;28;20668;-57
2021/05/01 11:35:24;;;;;;;1999.90;999.90;;;25.40;39.40;;;;;;5113293;28;20655;-50
2021/05/01 11:37:59;;;;;;;1999.90;999.90;;;25.40;38.10;;;;;;5113463;28;20164;-56
2021/05/01 11:40:35;;;;;;;1999.90;999.90;;;25.40;37.60;;;;;;5113249;28;20178;-50
2021/05/01 11:43:03;;;;;;;1999.90;999.90;;;25.60;38.20;;;;;;5113319;28;20213;-42
2021/05/01 11:45:47;;;;;;;1999.90;999.90;;;25.50;37.80;;;;;;5113419;28;20167;-54
2021/05/01 11:48:30;;;;;;;1999.90;999.90;;;25.60;37.00;;;;;;5113367;28;20167;-50
2021/05/01 11:50:58;;;;;;;1999.90;999.90;;;25.50;37.20;;;;;;5113276;28;20260;-55
2021/05/01 11:53:42;;;;;;;1999.90;999.90;;;25.60;37.10;;;;;;5112571;28;20290;-55
2021/05/01 11:56:49;;;;;;;1999.90;999.90;;;25.60;35.40;;;;;;5113254;28;20155;-57
2021/05/01 11:59:17;;;;;;;1999.90;999.90;;;25.50;34.90;;;;;;5112584;28;20666;-41
2021/05/01 12:02:01;;;;;;;1999.90;999.90;;;25.70;34.10;;;;;;5113101;28;20184;-48
2021/05/01 12:05:00;;;;;;;1999.90;999.90;;;25.80;32.80;;;;;;5113197;28;20251;-45
2021/05/01 12:07:48;;;;;;;1999.90;999.90;;;25.90;32.80;;;;;;5113130;28;20171;-42
2021/05/01 12:10:18;;;;;;;1999.90;999.90;;;26.00;33.60;;;;;;5113134;28;20159;-57
2021/05/01 12:13:00;;;;;;;1999.90;999.90;;;26.10;32.80;;;;;;5113110;28;20190;-42
2021/05/01 12:15:45;;;;;;;1999.90;999.90;;;25.90;33.10;;;;;;5113089;28;20151;-43
2021/05/01 12:18:12;;;;;;;1999.90;999.90;;;25.80;33.40;;;;;;5113040;28;20156;-43
2021/05/01 12:20:39;;;;;;;1999.90;999.90;;;25.90;32.80;;;;;;5113087;28;20171;-49
2021/05/01 12:23:12;;;;;;;1999.90;999.90;;;26.10;32.40;;;;;;5113064;28;20633;-42